createdAt,value
2019-02-07T00:02:58.190Z,9.02
2019-02-07T00:06:04.083Z,9.14
2019-02-07T00:09:11.100Z,8.62
2019-02-07T00:12:16.959Z,8.82
2019-02-07T00:15:22.901Z,9.01
2019-02-07T00:18:28.755Z,9.18
2019-02-07T00:21:34.770Z,9.03
2019-02-07T00:24:43.052Z,9.14
2019-02-07T00:27:48.103Z,9.17
2019-02-07T00:30:53.915Z,9.16
2019-02-07T00:33:59.689Z,8.70
2019-02-07T00:37:05.456Z,9.12
2019-02-07T00:40:14.122Z,9.21
2019-02-07T00:43:20.451Z,8.83
2019-02-07T00:46:26.221Z,8.68
2019-02-07T00:49:31.993Z,8.75
2019-02-07T00:52:37.890Z,8.66
2019-02-07T00:55:43.642Z,8.79
2019-02-07T00:58:49.440Z,8.68
2019-02-07T01:01:55.409Z,8.81
2019-02-07T01:05:01.269Z,8.79
2019-02-07T01:08:07.352Z,8.94
2019-02-07T01:11:13.204Z,8.85
2019-02-07T01:14:19.467Z,8.84
2019-02-07T01:17:25.221Z,9.01
2019-02-07T01:20:31.106Z,9.15
2019-02-07T01:23:37.040Z,8.96
2019-02-07T01:26:42.988Z,8.84
2019-02-07T01:29:48.753Z,8.68
2019-02-07T01:32:54.717Z,8.79
2019-02-07T01:36:00.487Z,8.67
2019-02-07T01:39:09.168Z,8.50
2019-02-07T01:42:15.049Z,8.72
2019-02-07T01:45:21.944Z,8.97
2019-02-07T01:48:27.854Z,8.95
2019-02-07T01:51:33.612Z,8.51
2019-02-07T01:54:39.373Z,8.73
2019-02-07T01:57:45.294Z,8.91
2019-02-07T02:00:51.380Z,8.82
2019-02-07T02:03:57.402Z,7.96
2019-02-07T02:07:03.159Z,8.19
2019-02-07T02:10:12.334Z,8.36
2019-02-07T02:13:18.093Z,8.39
2019-02-07T02:16:24.444Z,8.50
2019-02-07T02:19:30.356Z,8.62
2019-02-07T02:22:36.331Z,8.96
2019-02-07T02:25:42.167Z,8.64
2019-02-07T02:28:48.018Z,8.32
2019-02-07T02:31:53.755Z,8.64
2019-02-07T02:34:59.656Z,8.67
2019-02-07T02:38:06.518Z,8.81
2019-02-07T02:41:12.293Z,8.23
2019-02-07T02:44:18.155Z,8.30
2019-02-07T02:47:23.888Z,8.38
2019-02-07T02:50:29.833Z,8.46
2019-02-07T02:53:35.665Z,8.06
2019-02-07T02:56:41.903Z,8.41
2019-02-07T02:59:47.803Z,8.06
2019-02-07T03:03:31.012Z,8.35
2019-02-07T03:06:55.711Z,7.89
2019-02-07T03:10:19.088Z,7.80
2019-02-07T03:13:53.196Z,8.26
2019-02-07T03:17:15.122Z,7.80
2019-02-07T03:20:38.680Z,7.55
2019-02-07T03:24:10.053Z,7.82
2019-02-07T03:27:40.723Z,7.66
2019-02-07T03:31:14.597Z,7.68
2019-02-07T03:34:42.203Z,7.88
2019-02-07T03:37:56.133Z,7.70
2019-02-07T03:41:20.790Z,7.39
2019-02-07T03:44:54.720Z,7.38
2019-02-07T03:48:22.294Z,7.75
2019-02-07T03:51:55.992Z,7.32
2019-02-07T03:55:17.344Z,7.45
2019-02-07T03:58:40.674Z,7.34
2019-02-07T04:02:05.389Z,7.49
2019-02-07T04:05:29.719Z,7.62
2019-02-07T04:08:54.408Z,7.70
2019-02-07T04:12:19.038Z,7.80
2019-02-07T04:15:52.507Z,7.99
2019-02-07T04:19:20.084Z,7.93
2019-02-07T04:22:47.686Z,7.93
2019-02-07T04:26:15.135Z,7.49
2019-02-07T04:29:46.068Z,7.75
2019-02-07T04:33:10.756Z,7.88
2019-02-07T04:36:38.171Z,7.84
2019-02-07T04:40:05.850Z,7.92
2019-02-07T04:43:36.531Z,7.52
2019-02-07T04:47:13.299Z,7.90
2019-02-07T04:50:37.976Z,7.73
2019-02-07T04:54:08.809Z,7.72
2019-02-07T04:57:25.280Z,7.29
2019-02-07T05:00:43.109Z,7.79
2019-02-07T05:04:10.843Z,7.68
2019-02-07T05:07:34.261Z,7.56
2019-02-07T05:10:58.128Z,7.23
2019-02-07T05:14:25.674Z,7.47
2019-02-07T05:17:43.757Z,7.36
2019-02-07T05:21:26.487Z,7.23
2019-02-07T05:25:06.153Z,7.17
2019-02-07T05:28:29.671Z,7.45
2019-02-07T05:32:13.111Z,7.45
2019-02-07T05:35:49.836Z,6.96
2019-02-07T05:39:13.481Z,7.35
2019-02-07T05:42:44.097Z,7.57
2019-02-07T05:46:00.540Z,7.34
2019-02-07T05:49:26.353Z,7.54
2019-02-07T05:52:52.670Z,7.82
2019-02-07T05:56:16.078Z,7.85
2019-02-07T05:59:56.122Z,7.31
2019-02-07T06:03:20.696Z,7.20
2019-02-07T06:06:53.733Z,7.31
2019-02-07T06:10:16.944Z,6.88
2019-02-07T06:13:50.639Z,7.24
2019-02-07T06:17:16.115Z,7.17
2019-02-07T06:20:44.514Z,6.49
2019-02-07T06:24:12.281Z,7.02
2019-02-07T06:27:31.556Z,6.79
2019-02-07T06:30:56.170Z,6.64
2019-02-07T06:34:32.944Z,6.50
2019-02-07T06:38:03.466Z,6.34
2019-02-07T06:41:26.549Z,6.52
2019-02-07T06:44:56.699Z,6.90
2019-02-07T06:48:21.310Z,6.70
2019-02-07T06:51:40.486Z,6.77
2019-02-07T06:55:03.875Z,7.04
2019-02-07T06:58:43.497Z,6.86
2019-02-07T07:02:12.343Z,7.11
2019-02-07T07:05:30.927Z,7.15
2019-02-07T07:08:58.391Z,6.97
2019-02-07T07:12:29.301Z,7.19
2019-02-07T07:16:03.104Z,7.12
2019-02-07T07:19:36.887Z,7.36
2019-02-07T07:23:00.254Z,7.60
2019-02-07T07:26:24.075Z,7.42
2019-02-07T07:29:43.067Z,7.26
2019-02-07T07:33:01.622Z,7.39
2019-02-07T07:36:26.308Z,7.31
2019-02-07T07:39:54.063Z,7.37
2019-02-07T07:43:17.470Z,7.59
2019-02-07T07:46:47.866Z,7.15
2019-02-07T07:50:21.756Z,7.46
2019-02-07T07:53:49.155Z,7.70
2019-02-07T07:57:13.772Z,7.56
2019-02-07T08:00:42.273Z,7.70
2019-02-07T08:04:16.063Z,7.67
2019-02-07T08:07:50.561Z,7.87
2019-02-07T08:11:27.389Z,7.80
2019-02-07T08:14:50.913Z,7.52
2019-02-07T08:18:34.443Z,7.69
2019-02-07T08:22:05.393Z,8.01
2019-02-07T08:25:30.264Z,7.64
2019-02-07T08:28:59.284Z,7.77
2019-02-07T08:32:23.662Z,7.67
2019-02-07T08:35:48.432Z,7.81
2019-02-07T08:39:19.216Z,7.91
2019-02-07T08:42:43.193Z,8.21
2019-02-07T08:46:06.758Z,8.32
2019-02-07T08:49:34.228Z,7.52
2019-02-07T08:53:17.259Z,8.00
2019-02-07T08:56:48.102Z,8.18
2019-02-07T09:00:11.481Z,8.09
2019-02-07T09:03:36.299Z,8.29
2019-02-07T09:07:07.268Z,8.67
2019-02-07T09:10:40.407Z,8.64
2019-02-07T09:13:54.482Z,8.70
2019-02-07T09:17:19.154Z,8.67
2019-02-07T09:20:49.552Z,9.03
2019-02-07T09:24:17.639Z,9.03
2019-02-07T09:27:53.970Z,9.09
2019-02-07T09:31:18.677Z,8.78
2019-02-07T09:34:54.323Z,9.03
2019-02-07T09:38:28.164Z,9.19
2019-02-07T09:41:50.379Z,9.38
2019-02-07T09:45:14.851Z,9.26
2019-02-07T09:48:39.459Z,9.24
2019-02-07T09:52:02.238Z,9.60
2019-02-07T09:55:26.913Z,9.77
2019-02-07T09:58:50.464Z,9.72
2019-02-07T10:02:13.852Z,9.76
2019-02-07T10:05:27.962Z,9.87
2019-02-07T10:08:59.553Z,9.92
2019-02-07T10:12:39.908Z,9.52
2019-02-07T10:16:02.516Z,9.65
2019-02-07T10:19:36.731Z,9.81
2019-02-07T10:23:01.427Z,9.96
2019-02-07T10:26:25.034Z,10.08
2019-02-07T10:30:07.624Z,10.03
2019-02-07T10:33:47.648Z,10.31
2019-02-07T10:37:15.556Z,9.97
2019-02-07T10:40:46.082Z,9.93
2019-02-07T10:44:14.896Z,9.89
2019-02-07T10:47:39.483Z,9.81
2019-02-07T10:51:11.067Z,9.75
2019-02-07T10:54:39.045Z,9.55
2019-02-07T10:58:15.694Z,9.82
2019-02-07T11:01:55.461Z,9.67
2019-02-07T11:05:19.032Z,9.41
2019-02-07T11:08:49.712Z,9.49
2019-02-07T11:12:20.812Z,9.43
2019-02-07T11:15:58.765Z,9.41
2019-02-07T11:19:21.701Z,9.58
2019-02-07T11:22:44.805Z,9.52
2019-02-07T11:26:21.347Z,8.89
2019-02-07T11:29:42.575Z,8.95
2019-02-07T11:32:59.621Z,9.28
2019-02-07T11:36:41.992Z,9.26
2019-02-07T11:40:07.899Z,8.90
2019-02-07T11:43:33.980Z,9.15
2019-02-07T11:47:04.968Z,9.34
2019-02-07T11:50:11.407Z,9.27
2019-02-07T11:53:36.022Z,9.42
2019-02-07T11:56:56.791Z,8.95
2019-02-07T12:00:20.077Z,9.54
2019-02-07T12:03:43.328Z,9.70
2019-02-07T12:07:08.640Z,9.18
2019-02-07T12:10:34.927Z,9.47
2019-02-07T12:14:05.563Z,9.65
2019-02-07T12:17:29.402Z,9.62
2019-02-07T12:20:52.633Z,9.56
2019-02-07T12:24:16.212Z,9.08
2019-02-07T12:27:53.239Z,9.32
2019-02-07T12:31:20.696Z,9.50
2019-02-07T12:34:48.522Z,9.76
2019-02-07T12:38:28.549Z,9.75
2019-02-07T12:41:53.152Z,9.59
2019-02-07T12:45:23.858Z,9.63
2019-02-07T12:48:47.355Z,9.22
2019-02-07T12:52:13.256Z,9.46
2019-02-07T12:55:51.910Z,9.56
2019-02-07T12:59:09.746Z,9.47
2019-02-07T13:02:43.579Z,9.25
2019-02-07T13:06:07.043Z,9.20
2019-02-07T13:09:31.945Z,9.25
2019-02-07T13:12:59.349Z,9.40
2019-02-07T13:16:30.081Z,9.50
2019-02-07T13:20:05.802Z,9.47
2019-02-07T13:23:36.818Z,9.56
2019-02-07T13:27:13.532Z,9.46
2019-02-07T13:30:32.711Z,9.07
2019-02-07T13:34:00.391Z,9.33
2019-02-07T13:37:28.298Z,9.52
2019-02-07T13:41:06.890Z,9.28
2019-02-07T13:44:46.755Z,9.47
2019-02-07T13:48:09.604Z,9.68
2019-02-07T13:51:37.116Z,9.09
2019-02-07T13:55:04.787Z,9.54
2019-02-07T13:58:28.205Z,9.42
2019-02-07T14:01:52.811Z,9.29
2019-02-07T14:05:23.184Z,9.33
2019-02-07T14:08:47.813Z,9.40
2019-02-07T14:12:11.450Z,9.26
2019-02-07T14:15:45.292Z,9.04
2019-02-07T14:19:08.891Z,9.32
2019-02-07T14:22:39.723Z,9.58
2019-02-07T14:26:10.317Z,8.94
2019-02-07T14:29:33.590Z,9.32
2019-02-07T14:32:56.921Z,9.29
2019-02-07T14:36:21.654Z,8.78
2019-02-07T14:39:46.248Z,8.98
2019-02-07T14:43:01.693Z,9.19
2019-02-07T14:46:29.281Z,9.08
2019-02-07T14:49:35.095Z,8.79
2019-02-07T14:52:40.867Z,9.17
2019-02-07T14:55:46.764Z,9.21
2019-02-07T14:58:52.750Z,8.79
2019-02-07T15:01:58.739Z,9.09
2019-02-07T15:05:05.537Z,9.18
2019-02-07T15:08:12.435Z,9.01
2019-02-07T15:11:18.300Z,8.81
2019-02-07T15:14:26.578Z,9.08
2019-02-07T15:17:33.422Z,9.03
2019-02-07T15:20:39.297Z,8.83
2019-02-07T15:23:45.055Z,8.70
2019-02-07T15:26:50.802Z,8.72
2019-02-07T15:29:56.566Z,8.41
2019-02-07T15:33:02.372Z,8.68
2019-02-07T15:36:09.611Z,8.70
2019-02-07T15:39:17.477Z,8.71
2019-02-07T15:42:23.422Z,8.60
2019-02-07T15:45:29.927Z,8.73
2019-02-07T15:48:35.872Z,8.60
2019-02-07T15:51:41.778Z,8.57
2019-02-07T15:54:47.668Z,8.66
2019-02-07T15:57:53.695Z,8.75
2019-02-07T16:01:08.396Z,8.89
2019-02-07T16:04:19.906Z,8.38
2019-02-07T16:07:25.692Z,8.58
2019-02-07T16:10:31.453Z,8.78
2019-02-07T16:13:37.362Z,8.61
2019-02-07T16:16:43.356Z,8.52
2019-02-07T16:19:49.193Z,8.78
2019-02-07T16:22:55.084Z,8.40
2019-02-07T16:26:00.960Z,8.31
2019-02-07T16:29:08.407Z,8.31
2019-02-07T16:32:14.367Z,8.60
2019-02-07T16:35:21.222Z,8.21
2019-02-07T16:38:27.056Z,8.08
2019-02-07T16:41:32.923Z,8.29
2019-02-07T16:44:38.692Z,8.01
2019-02-07T16:47:45.562Z,7.82
2019-02-07T16:50:59.963Z,7.91
2019-02-07T16:53:58.925Z,8.01
2019-02-07T16:57:05.800Z,7.91
2019-02-07T17:00:17.500Z,7.69
2019-02-07T17:03:25.534Z,7.44
2019-02-07T17:06:31.286Z,7.24
2019-02-07T17:09:41.232Z,7.34
2019-02-07T17:12:47.260Z,6.87
2019-02-07T17:15:53.011Z,7.06
2019-02-07T17:18:58.785Z,6.96
2019-02-07T17:22:04.851Z,7.18
2019-02-07T17:25:11.071Z,7.15
2019-02-07T17:28:17.826Z,7.10
2019-02-07T17:31:23.583Z,7.46
2019-02-07T17:34:29.441Z,6.96
2019-02-07T17:37:35.247Z,7.50
2019-02-07T17:40:41.096Z,7.50
2019-02-07T17:43:47.247Z,7.35
2019-02-07T17:46:53.019Z,7.52
2019-02-07T17:49:58.878Z,7.39
2019-02-07T17:53:06.496Z,7.35
2019-02-07T17:56:12.294Z,7.38
2019-02-07T17:59:18.047Z,7.24
2019-02-07T18:02:23.960Z,7.33
2019-02-07T18:05:29.937Z,7.42
2019-02-07T18:08:35.818Z,7.53
2019-02-07T18:11:41.665Z,7.56
2019-02-07T18:14:47.569Z,7.42
2019-02-07T18:17:53.325Z,7.46
2019-02-07T18:20:59.095Z,7.44
2019-02-07T18:24:05.349Z,7.58
2019-02-07T18:27:11.153Z,7.43
2019-02-07T18:30:18.762Z,7.07
2019-02-07T18:33:24.530Z,6.82
2019-02-07T18:36:30.276Z,7.14
2019-02-07T18:39:36.092Z,6.60
2019-02-07T18:42:41.851Z,6.89
2019-02-07T18:45:47.633Z,6.68
2019-02-07T18:48:53.354Z,7.05
2019-02-07T18:51:59.115Z,7.43
2019-02-07T18:55:05.722Z,6.98
2019-02-07T18:58:11.497Z,6.78
2019-02-07T19:01:17.261Z,6.85
2019-02-07T19:04:23.418Z,6.65
2019-02-07T19:07:29.203Z,6.62
2019-02-07T19:10:35.103Z,6.64
2019-02-07T19:13:40.897Z,6.66
2019-02-07T19:16:46.719Z,6.60
2019-02-07T19:19:52.486Z,6.50
2019-02-07T19:22:58.344Z,6.52
2019-02-07T19:26:04.229Z,6.62
2019-02-07T19:29:10.104Z,6.69
2019-02-07T19:32:15.981Z,6.33
2019-02-07T19:35:21.878Z,6.43
2019-02-07T19:38:27.731Z,6.33
2019-02-07T19:41:33.497Z,6.15
2019-02-07T19:44:39.584Z,6.10
2019-02-07T19:47:45.601Z,6.37
2019-02-07T19:50:52.382Z,6.37
2019-02-07T19:53:58.592Z,6.54
2019-02-07T19:57:04.780Z,6.40
2019-02-07T20:00:20.047Z,6.27
2019-02-07T20:03:26.010Z,6.37
2019-02-07T20:06:31.901Z,6.67
2019-02-07T20:09:37.834Z,6.38
2019-02-07T20:12:44.043Z,6.65
2019-02-07T20:15:50.305Z,6.50
2019-02-07T20:18:56.191Z,6.26
2019-02-07T20:22:02.159Z,6.24
2019-02-07T20:25:10.501Z,6.56
2019-02-07T20:28:16.354Z,6.53
2019-02-07T20:31:22.285Z,6.88
2019-02-07T20:34:28.139Z,6.43
2019-02-07T20:37:33.934Z,6.62
2019-02-07T20:40:39.801Z,6.76
2019-02-07T20:43:45.675Z,6.86
2019-02-07T20:46:51.431Z,6.63
2019-02-07T20:49:57.178Z,6.83
2019-02-07T20:53:02.945Z,7.07
2019-02-07T20:56:08.699Z,6.89
2019-02-07T20:59:14.539Z,6.72
2019-02-07T21:02:20.482Z,6.72
2019-02-07T21:05:27.482Z,6.60
2019-02-07T21:08:33.256Z,6.72
2019-02-07T21:11:39.112Z,6.83
2019-02-07T21:14:44.879Z,6.98
2019-02-07T21:17:51.716Z,6.87
2019-02-07T21:20:57.503Z,7.18
2019-02-07T21:24:03.278Z,6.73
2019-02-07T21:27:09.050Z,6.85
2019-02-07T21:30:20.893Z,6.77
2019-02-07T21:33:26.970Z,6.93
2019-02-07T21:36:32.725Z,6.70
2019-02-07T21:39:39.571Z,6.81
2019-02-07T21:42:45.453Z,6.80
2019-02-07T21:45:51.242Z,6.71
2019-02-07T21:48:57.014Z,6.23
2019-02-07T21:52:03.882Z,6.32
2019-02-07T21:55:10.747Z,6.14
2019-02-07T21:58:16.741Z,5.91
2019-02-07T22:01:22.621Z,6.25
2019-02-07T22:04:28.479Z,6.29
2019-02-07T22:07:34.334Z,6.64
2019-02-07T22:10:40.192Z,6.30
2019-02-07T22:13:46.322Z,6.36
2019-02-07T22:16:52.139Z,6.68
2019-02-07T22:19:57.911Z,6.64
2019-02-07T22:23:03.962Z,6.15
2019-02-07T22:26:09.996Z,6.40
2019-02-07T22:29:15.852Z,6.32
2019-02-07T22:32:21.646Z,6.20
2019-02-07T22:35:27.499Z,6.34
2019-02-07T22:38:34.399Z,5.96
2019-02-07T22:41:40.294Z,6.24
2019-02-07T22:44:46.038Z,6.29
2019-02-07T22:47:51.804Z,6.14
2019-02-07T22:50:57.603Z,6.26
2019-02-07T22:54:03.556Z,6.00
2019-02-07T22:57:09.332Z,5.88
2019-02-07T23:01:10.373Z,6.35
2019-02-07T23:04:18.063Z,6.25
2019-02-07T23:07:23.929Z,6.03
2019-02-07T23:10:29.940Z,5.96
2019-02-07T23:13:37.912Z,6.24
2019-02-07T23:16:43.886Z,6.18
2019-02-07T23:19:49.795Z,5.86
2019-02-07T23:22:55.578Z,6.19
2019-02-07T23:26:01.434Z,6.07
2019-02-07T23:29:07.763Z,6.21
2019-02-07T23:32:13.632Z,6.00
2019-02-07T23:35:19.558Z,6.06
2019-02-07T23:38:25.348Z,5.94
2019-02-07T23:41:31.181Z,6.06
2019-02-07T23:44:36.930Z,6.32
2019-02-07T23:47:42.905Z,6.47
2019-02-07T23:50:48.699Z,6.16
2019-02-07T23:53:54.499Z,6.35
2019-02-07T23:57:00.390Z,6.45
